createdAt,value
2018-07-03T00:01:03.384Z,1.70
2018-07-03T00:03:31.591Z,1.47
2018-07-03T00:05:59.753Z,1.40
2018-07-03T00:08:28.029Z,1.40
2018-07-03T00:10:56.304Z,1.57
2018-07-03T00:13:24.455Z,2.30
2018-07-03T00:15:52.727Z,1.53
2018-07-03T00:18:20.961Z,2.03
2018-07-03T00:20:49.164Z,1.40
2018-07-03T00:23:17.318Z,2.10
2018-07-03T00:25:45.575Z,1.40
2018-07-03T00:28:13.790Z,1.63
2018-07-03T00:30:41.976Z,2.07
2018-07-03T00:33:10.158Z,2.23
2018-07-03T00:35:38.491Z,1.63
2018-07-03T00:38:07.667Z,2.97
2018-07-03T00:40:35.917Z,2.27
2018-07-03T00:43:04.174Z,3.73
2018-07-03T00:45:32.370Z,8.30
2018-07-03T00:48:00.647Z,2.47
2018-07-03T00:50:28.823Z,3.13
2018-07-03T00:52:57.091Z,3.73
2018-07-03T00:55:25.297Z,4.13
2018-07-03T00:57:53.560Z,2.30
2018-07-03T01:00:30.932Z,2.50
2018-07-03T01:02:59.466Z,4.13
2018-07-03T01:05:28.006Z,3.33
2018-07-03T01:07:56.376Z,4.97
2018-07-03T01:10:24.674Z,3.40
2018-07-03T01:12:53.325Z,4.00
2018-07-03T01:15:21.745Z,3.60
2018-07-03T01:17:49.959Z,4.23
2018-07-03T01:20:18.181Z,3.90
2018-07-03T01:22:46.357Z,5.60
2018-07-03T01:25:14.630Z,4.40
2018-07-03T01:27:42.809Z,4.33
2018-07-03T01:30:11.042Z,4.10
2018-07-03T01:32:39.312Z,4.40
2018-07-03T01:35:07.487Z,4.67
2018-07-03T01:37:35.697Z,6.93
2018-07-03T01:40:03.883Z,4.73
2018-07-03T01:42:32.056Z,5.10
2018-07-03T01:45:00.415Z,5.50
2018-07-03T01:47:28.639Z,7.40
2018-07-03T01:49:56.794Z,5.40
2018-07-03T01:52:25.031Z,6.57
2018-07-03T01:54:53.317Z,6.07
2018-07-03T01:57:21.490Z,6.87
2018-07-03T01:59:49.693Z,5.80
2018-07-03T02:02:17.937Z,6.20
2018-07-03T02:04:46.218Z,6.23
2018-07-03T02:07:14.358Z,6.70
2018-07-03T02:09:42.592Z,6.03
2018-07-03T02:12:10.740Z,6.33
2018-07-03T02:14:39.106Z,6.50
2018-07-03T02:17:07.467Z,6.20
2018-07-03T02:19:35.694Z,7.27
2018-07-03T02:22:03.934Z,7.03
2018-07-03T02:24:32.219Z,8.23
2018-07-03T02:27:00.544Z,6.90
2018-07-03T02:29:28.715Z,10.27
2018-07-03T02:31:56.884Z,8.33
2018-07-03T02:34:25.140Z,7.23
2018-07-03T02:36:53.312Z,6.33
2018-07-03T02:39:21.464Z,6.67
2018-07-03T02:41:49.670Z,7.17
2018-07-03T02:44:17.872Z,6.67
2018-07-03T02:46:46.022Z,7.27
2018-07-03T02:49:14.204Z,8.37
2018-07-03T02:51:42.390Z,7.13
2018-07-03T02:54:10.670Z,7.13
2018-07-03T02:56:38.636Z,7.67
2018-07-03T02:59:06.921Z,8.07
2018-07-03T03:01:35.372Z,7.40
2018-07-03T03:04:03.585Z,8.83
2018-07-03T03:06:31.910Z,7.00
2018-07-03T03:09:00.071Z,9.83
2018-07-03T03:11:28.519Z,8.73
2018-07-03T03:13:57.103Z,8.03
2018-07-03T03:16:25.370Z,8.17
2018-07-03T03:18:53.630Z,8.03
2018-07-03T03:21:21.579Z,8.27
2018-07-03T03:23:49.782Z,9.40
2018-07-03T03:26:18.082Z,8.17
2018-07-03T03:28:46.264Z,7.70
2018-07-03T03:31:14.482Z,7.70
2018-07-03T03:33:42.674Z,7.20
2018-07-03T03:36:10.659Z,9.47
2018-07-03T03:38:38.866Z,7.53
2018-07-03T03:41:07.091Z,6.97
2018-07-03T03:43:35.249Z,9.17
2018-07-03T03:46:03.432Z,7.73
2018-07-03T03:48:31.620Z,7.23
2018-07-03T03:50:59.902Z,9.00
2018-07-03T03:53:28.075Z,7.50
2018-07-03T03:55:56.545Z,9.30
2018-07-03T03:58:24.775Z,9.13
2018-07-03T04:00:53.074Z,8.33
2018-07-03T04:03:21.190Z,8.17
2018-07-03T04:05:49.456Z,8.00
2018-07-03T04:08:17.673Z,7.43
2018-07-03T04:10:45.908Z,7.60
2018-07-03T04:13:14.129Z,8.20
2018-07-03T04:15:43.392Z,7.53
2018-07-03T04:18:11.619Z,7.83
2018-07-03T04:20:39.857Z,9.87
2018-07-03T04:23:08.105Z,10.07
2018-07-03T04:25:36.502Z,9.57
2018-07-03T04:28:04.732Z,8.23
2018-07-03T04:30:33.039Z,7.50
2018-07-03T04:33:01.224Z,7.67
2018-07-03T04:35:29.582Z,8.13
2018-07-03T04:37:57.774Z,7.83
2018-07-03T04:40:26.672Z,10.33
2018-07-03T04:42:54.868Z,8.30
2018-07-03T04:45:23.076Z,9.80
2018-07-03T04:47:51.326Z,9.40
2018-07-03T04:50:19.275Z,8.67
2018-07-03T04:52:47.480Z,7.87
2018-07-03T04:55:15.469Z,9.37
2018-07-03T04:57:43.677Z,9.37
2018-07-03T05:00:11.928Z,9.90
2018-07-03T05:02:40.189Z,8.73
2018-07-03T05:05:08.489Z,10.63
2018-07-03T05:07:37.460Z,8.50
2018-07-03T05:10:05.753Z,10.43
2018-07-03T05:12:33.983Z,9.33
2018-07-03T05:15:02.359Z,8.67
2018-07-03T05:17:30.622Z,10.27
2018-07-03T05:20:05.666Z,9.40
2018-07-03T05:22:34.902Z,11.03
2018-07-03T05:25:03.274Z,10.10
2018-07-03T05:27:31.493Z,10.23
2018-07-03T05:29:59.842Z,11.93
2018-07-03T05:32:28.138Z,9.90
2018-07-03T05:34:56.405Z,9.90
2018-07-03T05:37:24.612Z,9.83
2018-07-03T05:39:52.926Z,9.80
2018-07-03T05:42:21.135Z,9.70
2018-07-03T05:44:49.541Z,12.87
2018-07-03T05:47:17.780Z,10.43
2018-07-03T05:49:45.952Z,11.17
2018-07-03T05:52:14.212Z,9.00
2018-07-03T05:54:43.441Z,10.23
2018-07-03T05:57:11.670Z,12.20
2018-07-03T05:59:39.885Z,9.83
2018-07-03T06:02:08.140Z,8.60
2018-07-03T06:04:36.578Z,10.13
2018-07-03T06:07:05.113Z,7.00
2018-07-03T06:09:33.505Z,7.97
2018-07-03T06:12:01.718Z,6.73
2018-07-03T06:14:30.043Z,8.57
2018-07-03T06:16:58.389Z,7.53
2018-07-03T06:19:27.152Z,8.17
2018-07-03T06:21:56.377Z,10.10
2018-07-03T06:24:25.866Z,8.03
2018-07-03T06:26:54.108Z,7.23
2018-07-03T06:29:22.260Z,9.63
2018-07-03T06:31:50.493Z,8.03
2018-07-03T06:34:18.941Z,7.73
2018-07-03T06:36:47.198Z,8.43
2018-07-03T06:39:15.338Z,6.70
2018-07-03T06:41:43.635Z,7.30
2018-07-03T06:44:11.824Z,9.87
2018-07-03T06:46:40.037Z,6.87
2018-07-03T06:49:08.211Z,11.73
2018-07-03T06:51:36.826Z,9.17
2018-07-03T06:54:05.103Z,8.47
2018-07-03T06:56:33.376Z,6.30
2018-07-03T06:59:01.609Z,6.60
2018-07-03T07:01:29.831Z,7.23
2018-07-03T07:03:58.260Z,7.43
2018-07-03T07:06:26.720Z,6.20
2018-07-03T07:08:55.682Z,6.23
2018-07-03T07:11:23.794Z,7.03
2018-07-03T07:13:52.011Z,4.57
2018-07-03T07:16:20.401Z,6.53
2018-07-03T07:18:48.611Z,11.10
2018-07-03T07:21:16.851Z,4.23
2018-07-03T07:23:45.010Z,5.83
2018-07-03T07:26:13.301Z,6.10
2018-07-03T07:28:41.558Z,6.03
2018-07-03T07:31:09.870Z,4.83
2018-07-03T07:33:38.071Z,5.30
2018-07-03T07:36:05.993Z,4.57
2018-07-03T07:38:34.133Z,4.97
2018-07-03T07:41:02.316Z,3.13
2018-07-03T07:43:30.526Z,5.50
2018-07-03T07:45:59.966Z,4.90
2018-07-03T07:48:28.180Z,5.17
2018-07-03T07:50:56.400Z,1.57
2018-07-03T07:53:24.627Z,2.40
2018-07-03T07:55:53.147Z,2.13
2018-07-03T07:58:21.396Z,2.33
2018-07-03T08:00:49.644Z,1.83
2018-07-03T08:03:17.842Z,3.47
2018-07-03T08:05:46.152Z,2.23
2018-07-03T08:08:14.423Z,2.30
2018-07-03T08:10:42.656Z,2.40
2018-07-03T08:13:11.008Z,1.60
2018-07-03T08:15:39.396Z,3.90
2018-07-03T08:18:07.593Z,1.93
2018-07-03T08:20:36.294Z,3.03
2018-07-03T08:23:04.437Z,1.77
2018-07-03T08:25:32.697Z,3.53
2018-07-03T08:28:00.882Z,1.87
2018-07-03T08:30:29.131Z,2.60
2018-07-03T08:32:57.355Z,3.73
2018-07-03T08:35:25.612Z,2.00
2018-07-03T08:37:53.860Z,1.70
2018-07-03T08:40:22.016Z,2.33
2018-07-03T08:42:50.188Z,1.97
2018-07-03T08:45:18.479Z,2.57
2018-07-03T08:47:46.750Z,2.73
2018-07-03T08:50:14.939Z,4.80
2018-07-03T08:52:43.151Z,1.27
2018-07-03T08:55:11.439Z,0.77
2018-07-03T08:57:39.604Z,2.40
2018-07-03T09:00:08.417Z,1.43
2018-07-03T09:02:36.962Z,2.57
2018-07-03T09:05:05.403Z,1.87
2018-07-03T09:07:33.601Z,3.53
2018-07-03T09:10:01.864Z,6.40
2018-07-03T09:12:30.026Z,3.17
2018-07-03T09:14:58.420Z,2.77
2018-07-03T09:17:30.646Z,3.30
2018-07-03T09:20:00.338Z,2.33
2018-07-03T09:22:28.765Z,2.27
2018-07-03T09:24:57.003Z,2.20
2018-07-03T09:27:25.210Z,2.40
2018-07-03T09:29:53.393Z,2.13
2018-07-03T09:32:21.556Z,2.50
2018-07-03T09:34:50.560Z,7.77
2018-07-03T09:37:18.769Z,3.87
2018-07-03T09:39:46.942Z,3.53
2018-07-03T09:42:15.138Z,4.23
2018-07-03T09:44:43.511Z,4.70
2018-07-03T09:47:11.659Z,3.33
2018-07-03T09:49:39.828Z,3.30
2018-07-03T09:52:08.021Z,2.03
2018-07-03T09:54:36.385Z,4.63
2018-07-03T09:57:04.626Z,4.60
2018-07-03T09:59:32.883Z,3.73
2018-07-03T10:02:01.109Z,3.43
2018-07-03T10:04:29.430Z,3.67
2018-07-03T10:06:57.744Z,4.53
2018-07-03T10:09:25.902Z,3.30
2018-07-03T10:11:54.074Z,2.83
2018-07-03T10:14:22.245Z,3.23
2018-07-03T10:16:50.466Z,6.70
2018-07-03T10:19:18.695Z,4.53
2018-07-03T10:21:46.945Z,7.03
2018-07-03T10:24:15.177Z,4.77
2018-07-03T10:26:43.390Z,3.10
2018-07-03T10:29:11.607Z,5.50
2018-07-03T10:31:39.772Z,4.30
2018-07-03T10:34:07.992Z,5.53
2018-07-03T10:36:36.192Z,3.20
2018-07-03T10:39:07.882Z,4.07
2018-07-03T10:41:36.116Z,3.67
2018-07-03T10:44:04.414Z,4.57
2018-07-03T10:46:32.871Z,5.93
2018-07-03T10:49:02.047Z,3.23
2018-07-03T10:51:30.230Z,3.30
2018-07-03T10:53:58.485Z,4.93
2018-07-03T10:56:26.751Z,1.97
2018-07-03T10:58:54.966Z,5.37
2018-07-03T11:01:23.152Z,3.17
2018-07-03T11:03:51.746Z,2.57
2018-07-03T11:06:20.077Z,3.90
2018-07-03T11:08:48.271Z,1.43
2018-07-03T11:11:16.523Z,4.53
2018-07-03T11:13:44.591Z,2.97
2018-07-03T11:16:12.751Z,5.10
2018-07-03T11:18:41.015Z,2.93
2018-07-03T11:21:09.261Z,7.53
2018-07-03T11:23:37.486Z,3.77
2018-07-03T11:26:05.523Z,1.20
2018-07-03T11:28:33.710Z,3.33
2018-07-03T11:31:01.874Z,3.40
2018-07-03T11:33:30.072Z,6.60
2018-07-03T11:35:58.276Z,2.83
2018-07-03T11:38:26.454Z,4.23
2018-07-03T11:40:54.736Z,2.10
2018-07-03T11:43:22.917Z,3.80
2018-07-03T11:45:52.215Z,2.47
2018-07-03T11:48:20.389Z,2.87
2018-07-03T11:50:48.583Z,1.93
2018-07-03T11:53:16.829Z,3.37
2018-07-03T11:55:45.092Z,2.87
2018-07-03T11:58:13.341Z,2.40
2018-07-03T12:00:41.285Z,4.73
2018-07-03T12:03:09.467Z,2.17
2018-07-03T12:05:37.850Z,3.67
2018-07-03T12:08:06.097Z,4.00
2018-07-03T12:10:34.271Z,1.67
2018-07-03T12:13:02.522Z,6.63
2018-07-03T12:15:30.772Z,3.83
2018-07-03T12:17:58.971Z,3.00
2018-07-03T12:20:27.258Z,2.95
2018-07-03T12:22:55.463Z,3.97
2018-07-03T12:25:24.844Z,3.50
2018-07-03T12:27:53.110Z,3.60
2018-07-03T12:30:21.293Z,4.00
2018-07-03T12:32:49.474Z,2.33
2018-07-03T12:35:18.739Z,2.17
2018-07-03T12:37:46.953Z,1.77
2018-07-03T12:40:15.171Z,2.90
2018-07-03T12:42:43.292Z,3.67
2018-07-03T12:45:11.497Z,3.70
2018-07-03T12:47:39.651Z,2.80
2018-07-03T12:50:08.361Z,3.92
2018-07-03T12:52:36.505Z,3.33
2018-07-03T12:55:05.233Z,4.07
2018-07-03T12:57:33.413Z,4.80
2018-07-03T13:00:01.659Z,5.37
2018-07-03T13:02:29.879Z,5.57
2018-07-03T13:04:58.409Z,6.60
2018-07-03T13:07:26.569Z,6.23
2018-07-03T13:09:54.748Z,7.13
2018-07-03T13:12:22.714Z,5.43
2018-07-03T13:14:50.987Z,5.57
2018-07-03T13:17:19.224Z,4.67
2018-07-03T13:19:47.433Z,4.27
2018-07-03T13:22:15.699Z,4.73
2018-07-03T13:24:44.090Z,5.37
2018-07-03T13:27:12.285Z,6.00
2018-07-03T13:29:40.464Z,9.87
2018-07-03T13:32:08.613Z,4.63
2018-07-03T13:34:36.912Z,7.33
2018-07-03T13:37:05.137Z,4.60
2018-07-03T13:39:33.347Z,7.83
2018-07-03T13:42:01.536Z,5.83
2018-07-03T13:44:30.943Z,5.03
2018-07-03T13:46:59.167Z,5.73
2018-07-03T13:49:27.370Z,6.97
2018-07-03T13:51:55.545Z,5.47
2018-07-03T13:54:23.935Z,5.93
2018-07-03T13:56:52.092Z,5.47
2018-07-03T13:59:20.286Z,4.60
2018-07-03T14:01:48.709Z,7.23
2018-07-03T14:04:17.146Z,5.13
2018-07-03T14:06:45.496Z,6.08
2018-07-03T14:09:13.787Z,6.03
2018-07-03T14:11:42.068Z,4.57
2018-07-03T14:14:10.350Z,4.47
2018-07-03T14:16:38.698Z,5.40
2018-07-03T14:19:07.030Z,4.20
2018-07-03T14:21:35.335Z,5.60
2018-07-03T14:24:03.677Z,4.17
2018-07-03T14:26:31.991Z,4.13
2018-07-03T14:29:00.199Z,2.67
2018-07-03T14:31:28.473Z,4.00
2018-07-03T14:33:56.778Z,4.30
2018-07-03T14:36:25.236Z,3.17
2018-07-03T14:38:53.430Z,5.17
2018-07-03T14:41:21.659Z,4.93
2018-07-03T14:43:49.834Z,4.03
2018-07-03T14:46:18.105Z,3.43
2018-07-03T14:48:46.052Z,4.43
2018-07-03T14:51:14.252Z,3.87
2018-07-03T14:53:42.466Z,4.73
2018-07-03T14:56:10.834Z,4.77
2018-07-03T14:58:39.024Z,4.40
2018-07-03T15:01:07.310Z,5.17
2018-07-03T15:03:35.496Z,4.50
2018-07-03T15:06:03.713Z,3.23
2018-07-03T15:08:31.984Z,3.70
2018-07-03T15:11:00.169Z,5.07
2018-07-03T15:13:28.358Z,5.37
2018-07-03T15:15:56.920Z,4.63
2018-07-03T15:18:29.522Z,7.60
2018-07-03T15:20:57.665Z,4.87
2018-07-03T15:23:25.839Z,5.53
2018-07-03T15:25:54.298Z,6.53
2018-07-03T15:28:22.534Z,5.53
2018-07-03T15:30:50.729Z,6.23
2018-07-03T15:33:19.051Z,4.40
2018-07-03T15:35:47.293Z,6.70
2018-07-03T15:38:15.442Z,5.00
2018-07-03T15:40:43.722Z,3.60
2018-07-03T15:43:11.931Z,6.57
2018-07-03T15:45:40.239Z,7.13
2018-07-03T15:48:08.434Z,7.30
2018-07-03T15:50:36.704Z,7.47
2018-07-03T15:53:04.961Z,2.83
2018-07-03T15:55:33.367Z,3.30
2018-07-03T15:58:01.590Z,6.63
2018-07-03T16:00:29.853Z,3.67
2018-07-03T16:03:09.459Z,4.57
2018-07-03T16:05:49.192Z,4.87
2018-07-03T16:08:28.687Z,7.00
2018-07-03T16:10:57.164Z,4.87
2018-07-03T16:13:25.366Z,3.60
2018-07-03T16:15:53.760Z,4.00
2018-07-03T16:18:22.033Z,6.53
2018-07-03T16:20:50.323Z,6.87
2018-07-03T16:23:18.507Z,3.67
2018-07-03T16:25:46.958Z,6.00
2018-07-03T16:28:15.143Z,7.30
2018-07-03T16:30:43.322Z,8.50
2018-07-03T16:33:11.521Z,8.30
2018-07-03T16:35:39.928Z,10.80
2018-07-03T16:38:08.183Z,4.63
2018-07-03T16:40:36.569Z,4.00
2018-07-03T16:43:04.944Z,3.60
2018-07-03T16:45:33.272Z,4.93
2018-07-03T16:48:01.422Z,3.63
2018-07-03T16:50:29.678Z,5.07
2018-07-03T16:52:58.024Z,3.77
2018-07-03T16:55:26.356Z,5.50
2018-07-03T16:57:54.614Z,4.07
2018-07-03T17:00:25.565Z,5.87
2018-07-03T17:02:53.989Z,4.50
2018-07-03T17:05:23.081Z,4.23
2018-07-03T17:07:51.016Z,5.60
2018-07-03T17:10:19.195Z,4.97
2018-07-03T17:12:47.367Z,3.73
2018-07-03T17:15:16.093Z,4.87
2018-07-03T17:17:44.316Z,7.10
2018-07-03T17:20:12.715Z,3.57
2018-07-03T17:22:40.988Z,6.37
2018-07-03T17:25:10.067Z,5.30
2018-07-03T17:27:38.306Z,7.17
2018-07-03T17:30:06.779Z,5.10
2018-07-03T17:32:34.990Z,3.90
2018-07-03T17:35:03.270Z,6.83
2018-07-03T17:37:31.851Z,5.03
2018-07-03T17:40:11.696Z,4.87
2018-07-03T17:42:51.427Z,7.47
2018-07-03T17:45:41.910Z,4.80
2018-07-03T17:48:11.407Z,3.93
2018-07-03T17:50:39.578Z,4.87
2018-07-03T17:53:08.017Z,6.10
2018-07-03T17:55:36.467Z,4.27
2018-07-03T17:58:04.954Z,4.07
2018-07-03T18:00:33.257Z,2.50
2018-07-03T18:03:01.295Z,2.83
2018-07-03T18:05:31.493Z,3.13
2018-07-03T18:07:59.820Z,3.47
2018-07-03T18:10:28.018Z,4.10
2018-07-03T18:12:56.338Z,3.90
2018-07-03T18:15:24.621Z,8.87
2018-07-03T18:17:52.799Z,5.63
2018-07-03T18:20:20.972Z,3.07
2018-07-03T18:22:49.149Z,4.47
2018-07-03T18:25:17.460Z,6.03
2018-07-03T18:27:45.627Z,2.73
2018-07-03T18:30:14.148Z,5.03
2018-07-03T18:32:42.514Z,3.07
2018-07-03T18:35:10.797Z,4.43
2018-07-03T18:37:39.018Z,6.67
2018-07-03T18:40:07.943Z,4.60
2018-07-03T18:42:36.164Z,3.50
2018-07-03T18:45:04.907Z,5.30
2018-07-03T18:47:33.064Z,3.37
2018-07-03T18:50:01.299Z,4.93
2018-07-03T18:52:29.546Z,8.20
2018-07-03T18:54:58.006Z,4.87
2018-07-03T18:57:26.187Z,3.70
2018-07-03T18:59:54.539Z,3.97
2018-07-03T19:02:22.484Z,4.00
2018-07-03T19:04:50.758Z,5.13
2018-07-03T19:07:18.909Z,4.73
2018-07-03T19:09:47.141Z,6.87
2018-07-03T19:12:15.318Z,4.93
2018-07-03T19:14:43.613Z,5.20
2018-07-03T19:17:11.785Z,2.90
2018-07-03T19:19:40.008Z,5.00
2018-07-03T19:22:08.228Z,4.00
2018-07-03T19:24:36.519Z,4.97
2018-07-03T19:27:04.722Z,4.83
2018-07-03T19:29:33.144Z,6.97
2018-07-03T19:32:01.340Z,4.67
2018-07-03T19:34:29.604Z,5.97
2018-07-03T19:36:57.820Z,6.20
2018-07-03T19:39:26.028Z,6.87
2018-07-03T19:41:54.222Z,5.93
2018-07-03T19:44:22.510Z,5.03
2018-07-03T19:46:50.691Z,6.23
2018-07-03T19:49:19.348Z,5.60
2018-07-03T19:51:47.548Z,4.60
2018-07-03T19:54:15.774Z,6.47
2018-07-03T19:56:43.996Z,3.20
2018-07-03T19:59:12.195Z,3.80
2018-07-03T20:01:40.433Z,4.20
2018-07-03T20:04:08.596Z,4.57
2018-07-03T20:06:36.788Z,7.60
2018-07-03T20:09:08.505Z,6.70
2018-07-03T20:11:36.785Z,4.97
2018-07-03T20:14:06.172Z,7.07
2018-07-03T20:16:34.724Z,4.20
2018-07-03T20:19:03.068Z,4.10
2018-07-03T20:21:31.207Z,4.67
2018-07-03T20:23:59.456Z,6.40
2018-07-03T20:26:27.730Z,7.90
2018-07-03T20:28:55.909Z,5.83
2018-07-03T20:31:24.190Z,3.97
2018-07-03T20:33:52.371Z,4.20
2018-07-03T20:36:20.639Z,7.47
2018-07-03T20:38:48.912Z,7.23
2018-07-03T20:41:17.144Z,4.10
2018-07-03T20:43:45.322Z,3.73
2018-07-03T20:46:13.735Z,5.77
2018-07-03T20:48:41.948Z,7.23
2018-07-03T20:51:10.194Z,4.00
2018-07-03T20:53:38.181Z,7.10
2018-07-03T20:56:06.802Z,6.50
2018-07-03T20:58:34.987Z,6.73
2018-07-03T21:01:03.201Z,5.97
2018-07-03T21:03:31.491Z,4.10
2018-07-03T21:06:00.020Z,3.77
2018-07-03T21:08:28.149Z,5.13
2018-07-03T21:10:56.301Z,5.03
2018-07-03T21:13:24.540Z,4.63
2018-07-03T21:15:52.868Z,5.03
2018-07-03T21:18:21.061Z,9.57
2018-07-03T21:20:49.294Z,3.50
2018-07-03T21:23:17.290Z,5.23
2018-07-03T21:25:45.760Z,6.80
2018-07-03T21:28:13.960Z,9.20
2018-07-03T21:30:42.149Z,4.80
2018-07-03T21:33:10.372Z,4.17
2018-07-03T21:35:38.624Z,4.63
2018-07-03T21:38:06.906Z,5.60
2018-07-03T21:40:35.178Z,6.60
2018-07-03T21:43:03.511Z,5.13
2018-07-03T21:45:31.860Z,6.33
2018-07-03T21:48:00.049Z,10.67
2018-07-03T21:50:28.242Z,5.23
2018-07-03T21:52:56.485Z,5.67
2018-07-03T21:55:24.775Z,4.20
2018-07-03T21:57:53.012Z,4.07
2018-07-03T22:00:34.093Z,5.53
2018-07-03T22:03:02.844Z,5.53
2018-07-03T22:05:31.182Z,3.60
2018-07-03T22:07:59.340Z,7.03
2018-07-03T22:10:27.601Z,6.60
2018-07-03T22:12:55.796Z,8.27
2018-07-03T22:15:24.095Z,3.53
2018-07-03T22:17:52.292Z,7.30
2018-07-03T22:20:20.472Z,5.53
2018-07-03T22:22:48.721Z,5.93
2018-07-03T22:25:16.961Z,4.93
2018-07-03T22:27:45.173Z,5.57
2018-07-03T22:30:13.341Z,4.83
2018-07-03T22:32:41.883Z,6.00
2018-07-03T22:35:10.124Z,6.07
2018-07-03T22:37:38.339Z,2.97
2018-07-03T22:40:07.404Z,8.40
2018-07-03T22:42:35.596Z,4.07
2018-07-03T22:45:03.937Z,9.57
2018-07-03T22:47:32.103Z,7.63
2018-07-03T22:50:00.284Z,5.70
2018-07-03T22:52:28.476Z,6.30
2018-07-03T22:54:56.642Z,7.73
2018-07-03T22:57:24.839Z,6.70
2018-07-03T22:59:53.059Z,6.70
2018-07-03T23:02:21.261Z,7.23
2018-07-03T23:04:49.640Z,12.97
2018-07-03T23:07:17.790Z,6.00
2018-07-03T23:09:45.999Z,6.03
2018-07-03T23:12:19.760Z,12.13
2018-07-03T23:14:49.588Z,6.13
2018-07-03T23:17:17.773Z,9.20
2018-07-03T23:19:46.310Z,12.60
2018-07-03T23:22:14.541Z,4.93
2018-07-03T23:24:43.311Z,8.50
2018-07-03T23:27:11.911Z,4.77
2018-07-03T23:29:40.259Z,4.63
2018-07-03T23:32:08.776Z,9.90
2018-07-03T23:34:37.119Z,5.70
2018-07-03T23:37:05.392Z,4.10
2018-07-03T23:39:33.572Z,6.03
2018-07-03T23:42:01.843Z,6.70
2018-07-03T23:44:30.205Z,7.20
2018-07-03T23:47:09.859Z,9.17
2018-07-03T23:49:49.532Z,8.63
2018-07-03T23:52:29.087Z,5.43
2018-07-03T23:55:08.649Z,7.13
2018-07-03T23:57:48.368Z,6.23
